sensor_id;sensor_type;location;lat;lon;timestamp;temperature;humidity
21149;DHT22;10732;51.472;6.466;2024-01-06T00:01:10;6.10;99.90
21149;DHT22;10732;51.472;6.466;2024-01-06T00:03:37;6.10;99.90
21149;DHT22;10732;51.472;6.466;2024-01-06T00:06:03;6.10;99.90
21149;DHT22;10732;51.472;6.466;2024-01-06T00:08:28;6.10;99.90
21149;DHT22;10732;51.472;6.466;2024-01-06T00:10:54;6.10;99.90
21149;DHT22;10732;51.472;6.466;2024-01-06T00:13:20;6.20;99.90
21149;DHT22;10732;51.472;6.466;2024-01-06T00:15:46;6.20;99.90
21149;DHT22;10732;51.472;6.466;2024-01-06T00:18:11;6.10;99.90
21149;DHT22;10732;51.472;6.466;2024-01-06T00:20:37;6.20;99.90
21149;DHT22;10732;51.472;6.466;2024-01-06T00:23:02;6.20;99.90
21149;DHT22;10732;51.472;6.466;2024-01-06T00:25:28;6.20;99.90
21149;DHT22;10732;51.472;6.466;2024-01-06T00:27:54;6.20;99.90
21149;DHT22;10732;51.472;6.466;2024-01-06T00:30:19;6.20;99.90
21149;DHT22;10732;51.472;6.466;2024-01-06T00:32:45;6.20;99.90
21149;DHT22;10732;51.472;6.466;2024-01-06T00:35:10;6.20;99.90
21149;DHT22;10732;51.472;6.466;2024-01-06T00:37:36;6.20;99.90
21149;DHT22;10732;51.472;6.466;2024-01-06T00:40:01;6.20;99.90
21149;DHT22;10732;51.472;6.466;2024-01-06T00:42:27;6.30;99.90
21149;DHT22;10732;51.472;6.466;2024-01-06T00:44:52;6.20;99.90
21149;DHT22;10732;51.472;6.466;2024-01-06T00:47:18;6.20;99.90
21149;DHT22;10732;51.472;6.466;2024-01-06T00:49:43;6.20;99.90
21149;DHT22;10732;51.472;6.466;2024-01-06T00:52:10;6.20;99.90
21149;DHT22;10732;51.472;6.466;2024-01-06T00:54:36;6.20;99.90
21149;DHT22;10732;51.472;6.466;2024-01-06T00:57:01;6.20;99.90
21149;DHT22;10732;51.472;6.466;2024-01-06T00:59:27;6.20;99.90
21149;DHT22;10732;51.472;6.466;2024-01-06T01:01:52;6.20;99.90
21149;DHT22;10732;51.472;6.466;2024-01-06T01:04:19;6.20;99.90
21149;DHT22;10732;51.472;6.466;2024-01-06T01:06:44;6.30;99.90
21149;DHT22;10732;51.472;6.466;2024-01-06T01:09:10;6.30;99.90
21149;DHT22;10732;51.472;6.466;2024-01-06T01:11:35;6.30;99.90
21149;DHT22;10732;51.472;6.466;2024-01-06T01:14:01;6.30;99.90
21149;DHT22;10732;51.472;6.466;2024-01-06T01:16:26;6.30;99.90
21149;DHT22;10732;51.472;6.466;2024-01-06T01:18:52;6.20;99.90
21149;DHT22;10732;51.472;6.466;2024-01-06T01:21:17;6.20;99.90
21149;DHT22;10732;51.472;6.466;2024-01-06T01:23:43;6.20;99.90
21149;DHT22;10732;51.472;6.466;2024-01-06T01:26:09;6.20;99.90
21149;DHT22;10732;51.472;6.466;2024-01-06T01:28:34;6.20;99.90
21149;DHT22;10732;51.472;6.466;2024-01-06T01:31:00;6.20;99.90
21149;DHT22;10732;51.472;6.466;2024-01-06T01:33:25;6.20;99.90
21149;DHT22;10732;51.472;6.466;2024-01-06T01:35:51;6.20;99.90
21149;DHT22;10732;51.472;6.466;2024-01-06T01:38:17;6.20;99.90
21149;DHT22;10732;51.472;6.466;2024-01-06T01:40:42;6.20;99.90
21149;DHT22;10732;51.472;6.466;2024-01-06T01:43:19;6.20;99.90
21149;DHT22;10732;51.472;6.466;2024-01-06T01:45:48;6.20;99.90
21149;DHT22;10732;51.472;6.466;2024-01-06T01:48:15;6.10;99.90
21149;DHT22;10732;51.472;6.466;2024-01-06T01:50:41;6.10;99.90
21149;DHT22;10732;51.472;6.466;2024-01-06T01:53:06;6.10;99.90
21149;DHT22;10732;51.472;6.466;2024-01-06T01:55:32;6.10;99.90
21149;DHT22;10732;51.472;6.466;2024-01-06T01:57:57;6.10;99.90
21149;DHT22;10732;51.472;6.466;2024-01-06T02:00:23;6.10;99.90
21149;DHT22;10732;51.472;6.466;2024-01-06T02:02:49;6.10;99.90
21149;DHT22;10732;51.472;6.466;2024-01-06T02:05:14;6.10;99.90
21149;DHT22;10732;51.472;6.466;2024-01-06T02:07:40;6.10;99.90
21149;DHT22;10732;51.472;6.466;2024-01-06T02:10:06;6.10;99.90
21149;DHT22;10732;51.472;6.466;2024-01-06T02:12:32;6.20;99.90
21149;DHT22;10732;51.472;6.466;2024-01-06T02:14:57;6.10;99.90
21149;DHT22;10732;51.472;6.466;2024-01-06T02:17:23;6.20;99.90
21149;DHT22;10732;51.472;6.466;2024-01-06T02:19:49;6.10;99.90
21149;DHT22;10732;51.472;6.466;2024-01-06T02:22:14;6.20;99.90
21149;DHT22;10732;51.472;6.466;2024-01-06T02:24:40;6.20;99.90
21149;DHT22;10732;51.472;6.466;2024-01-06T02:27:05;6.20;99.90
21149;DHT22;10732;51.472;6.466;2024-01-06T02:29:31;5.90;99.90
21149;DHT22;10732;51.472;6.466;2024-01-06T02:31:56;5.80;99.90
21149;DHT22;10732;51.472;6.466;2024-01-06T02:34:23;5.80;99.90
21149;DHT22;10732;51.472;6.466;2024-01-06T02:36:48;5.80;99.90
21149;DHT22;10732;51.472;6.466;2024-01-06T02:39:14;5.70;99.90
21149;DHT22;10732;51.472;6.466;2024-01-06T02:41:39;5.70;99.90
21149;DHT22;10732;51.472;6.466;2024-01-06T02:44:05;5.70;99.90
21149;DHT22;10732;51.472;6.466;2024-01-06T02:46:30;5.70;99.90
21149;DHT22;10732;51.472;6.466;2024-01-06T02:48:56;5.70;99.90
21149;DHT22;10732;51.472;6.466;2024-01-06T02:51:21;5.70;99.90
21149;DHT22;10732;51.472;6.466;2024-01-06T02:53:47;5.60;99.90
21149;DHT22;10732;51.472;6.466;2024-01-06T02:56:12;5.60;99.90
21149;DHT22;10732;51.472;6.466;2024-01-06T02:58:38;5.60;99.90
21149;DHT22;10732;51.472;6.466;2024-01-06T03:01:04;5.50;99.90
21149;DHT22;10732;51.472;6.466;2024-01-06T03:03:30;5.50;99.90
21149;DHT22;10732;51.472;6.466;2024-01-06T03:05:55;5.50;99.90
21149;DHT22;10732;51.472;6.466;2024-01-06T03:08:21;5.40;99.90
21149;DHT22;10732;51.472;6.466;2024-01-06T03:10:49;5.40;99.90
21149;DHT22;10732;51.472;6.466;2024-01-06T03:13:14;5.30;99.90
21149;DHT22;10732;51.472;6.466;2024-01-06T03:15:40;5.40;99.90
21149;DHT22;10732;51.472;6.466;2024-01-06T03:18:05;5.40;99.90
21149;DHT22;10732;51.472;6.466;2024-01-06T03:20:31;5.40;99.90
21149;DHT22;10732;51.472;6.466;2024-01-06T03:22:57;5.40;99.90
21149;DHT22;10732;51.472;6.466;2024-01-06T03:25:22;5.40;99.90
21149;DHT22;10732;51.472;6.466;2024-01-06T03:27:48;5.40;99.90
21149;DHT22;10732;51.472;6.466;2024-01-06T03:30:13;5.30;99.90
21149;DHT22;10732;51.472;6.466;2024-01-06T03:32:39;5.30;99.90
21149;DHT22;10732;51.472;6.466;2024-01-06T03:35:05;5.30;99.90
21149;DHT22;10732;51.472;6.466;2024-01-06T03:37:32;5.30;99.90
21149;DHT22;10732;51.472;6.466;2024-01-06T03:39:58;5.30;99.90
21149;DHT22;10732;51.472;6.466;2024-01-06T03:42:23;5.20;99.90
21149;DHT22;10732;51.472;6.466;2024-01-06T03:44:49;5.20;99.90
21149;DHT22;10732;51.472;6.466;2024-01-06T03:47:14;5.20;99.90
21149;DHT22;10732;51.472;6.466;2024-01-06T03:49:40;5.20;99.90
21149;DHT22;10732;51.472;6.466;2024-01-06T03:52:05;5.10;99.90
21149;DHT22;10732;51.472;6.466;2024-01-06T03:54:31;5.10;99.90
21149;DHT22;10732;51.472;6.466;2024-01-06T03:56:56;5.10;99.90
21149;DHT22;10732;51.472;6.466;2024-01-06T03:59:22;5.10;99.90
21149;DHT22;10732;51.472;6.466;2024-01-06T04:01:47;5.20;99.90
21149;DHT22;10732;51.472;6.466;2024-01-06T04:04:13;5.20;99.90
21149;DHT22;10732;51.472;6.466;2024-01-06T04:06:39;5.20;99.90
21149;DHT22;10732;51.472;6.466;2024-01-06T04:09:04;5.20;99.90
21149;DHT22;10732;51.472;6.466;2024-01-06T04:11:30;5.10;99.90
21149;DHT22;10732;51.472;6.466;2024-01-06T04:13:56;5.20;99.90
21149;DHT22;10732;51.472;6.466;2024-01-06T04:16:21;5.10;99.90
21149;DHT22;10732;51.472;6.466;2024-01-06T04:18:47;5.10;99.90
21149;DHT22;10732;51.472;6.466;2024-01-06T04:21:13;5.10;99.90
21149;DHT22;10732;51.472;6.466;2024-01-06T04:23:38;5.10;99.90
21149;DHT22;10732;51.472;6.466;2024-01-06T04:26:04;5.10;99.90
21149;DHT22;10732;51.472;6.466;2024-01-06T04:28:32;5.00;99.90
21149;DHT22;10732;51.472;6.466;2024-01-06T04:30:57;5.10;99.90
21149;DHT22;10732;51.472;6.466;2024-01-06T04:33:23;5.00;99.90
21149;DHT22;10732;51.472;6.466;2024-01-06T04:35:48;5.10;99.90
21149;DHT22;10732;51.472;6.466;2024-01-06T04:38:15;5.10;99.90
21149;DHT22;10732;51.472;6.466;2024-01-06T04:40:41;5.10;99.90
21149;DHT22;10732;51.472;6.466;2024-01-06T04:43:06;5.10;99.90
21149;DHT22;10732;51.472;6.466;2024-01-06T04:45:32;5.10;99.90
21149;DHT22;10732;51.472;6.466;2024-01-06T04:47:58;5.10;99.90
21149;DHT22;10732;51.472;6.466;2024-01-06T04:50:23;5.00;99.90
21149;DHT22;10732;51.472;6.466;2024-01-06T04:52:49;5.00;99.90
21149;DHT22;10732;51.472;6.466;2024-01-06T04:55:14;5.00;99.90
21149;DHT22;10732;51.472;6.466;2024-01-06T04:57:40;5.00;99.90
21149;DHT22;10732;51.472;6.466;2024-01-06T05:00:06;5.10;99.90
21149;DHT22;10732;51.472;6.466;2024-01-06T05:02:31;5.10;99.90
21149;DHT22;10732;51.472;6.466;2024-01-06T05:04:57;5.10;99.90
21149;DHT22;10732;51.472;6.466;2024-01-06T05:07:23;5.00;99.90
21149;DHT22;10732;51.472;6.466;2024-01-06T05:09:48;5.10;99.90
21149;DHT22;10732;51.472;6.466;2024-01-06T05:12:14;5.00;99.90
21149;DHT22;10732;51.472;6.466;2024-01-06T05:14:39;5.00;99.90
21149;DHT22;10732;51.472;6.466;2024-01-06T05:17:05;5.00;99.90
21149;DHT22;10732;51.472;6.466;2024-01-06T05:19:31;5.00;99.90
21149;DHT22;10732;51.472;6.466;2024-01-06T05:21:56;5.00;99.90
21149;DHT22;10732;51.472;6.466;2024-01-06T05:24:22;5.00;99.90
21149;DHT22;10732;51.472;6.466;2024-01-06T05:26:48;5.00;99.90
21149;DHT22;10732;51.472;6.466;2024-01-06T05:29:13;5.00;99.90
21149;DHT22;10732;51.472;6.466;2024-01-06T05:31:39;5.00;99.90
21149;DHT22;10732;51.472;6.466;2024-01-06T05:34:04;5.00;99.90
21149;DHT22;10732;51.472;6.466;2024-01-06T05:36:30;5.00;99.90
21149;DHT22;10732;51.472;6.466;2024-01-06T05:38:55;5.00;99.90
21149;DHT22;10732;51.472;6.466;2024-01-06T05:41:21;5.00;99.90
21149;DHT22;10732;51.472;6.466;2024-01-06T05:43:46;5.00;99.90
21149;DHT22;10732;51.472;6.466;2024-01-06T05:46:23;5.00;99.90
21149;DHT22;10732;51.472;6.466;2024-01-06T05:48:48;5.00;99.90
21149;DHT22;10732;51.472;6.466;2024-01-06T05:51:14;4.90;99.90
21149;DHT22;10732;51.472;6.466;2024-01-06T05:53:39;4.80;99.90
21149;DHT22;10732;51.472;6.466;2024-01-06T05:56:07;4.80;99.90
21149;DHT22;10732;51.472;6.466;2024-01-06T05:58:34;4.80;99.90
21149;DHT22;10732;51.472;6.466;2024-01-06T06:01:00;4.80;99.90
21149;DHT22;10732;51.472;6.466;2024-01-06T06:03:25;4.80;99.90
21149;DHT22;10732;51.472;6.466;2024-01-06T06:05:51;4.80;99.90
21149;DHT22;10732;51.472;6.466;2024-01-06T06:08:16;4.80;99.90
21149;DHT22;10732;51.472;6.466;2024-01-06T06:10:42;4.80;99.90
21149;DHT22;10732;51.472;6.466;2024-01-06T06:13:25;4.80;99.90
21149;DHT22;10732;51.472;6.466;2024-01-06T06:15:50;4.80;99.90
21149;DHT22;10732;51.472;6.466;2024-01-06T06:18:16;4.80;99.90
21149;DHT22;10732;51.472;6.466;2024-01-06T06:20:41;4.80;99.90
21149;DHT22;10732;51.472;6.466;2024-01-06T06:23:09;4.70;99.90
21149;DHT22;10732;51.472;6.466;2024-01-06T06:25:36;4.70;99.90
21149;DHT22;10732;51.472;6.466;2024-01-06T06:28:02;4.70;99.90
21149;DHT22;10732;51.472;6.466;2024-01-06T06:30:28;4.70;99.90
21149;DHT22;10732;51.472;6.466;2024-01-06T06:32:54;4.80;99.90
21149;DHT22;10732;51.472;6.466;2024-01-06T06:35:19;4.80;99.90
21149;DHT22;10732;51.472;6.466;2024-01-06T06:37:45;4.80;99.90
21149;DHT22;10732;51.472;6.466;2024-01-06T06:40:11;4.70;99.90
21149;DHT22;10732;51.472;6.466;2024-01-06T06:42:36;4.70;99.90
21149;DHT22;10732;51.472;6.466;2024-01-06T06:45:03;4.80;99.90
21149;DHT22;10732;51.472;6.466;2024-01-06T06:47:29;4.70;99.90
21149;DHT22;10732;51.472;6.466;2024-01-06T06:49:54;4.70;99.90
21149;DHT22;10732;51.472;6.466;2024-01-06T06:52:20;4.70;99.90
21149;DHT22;10732;51.472;6.466;2024-01-06T06:54:45;4.60;99.90
21149;DHT22;10732;51.472;6.466;2024-01-06T06:57:11;4.60;99.90
21149;DHT22;10732;51.472;6.466;2024-01-06T06:59:37;4.60;99.90
21149;DHT22;10732;51.472;6.466;2024-01-06T07:02:02;4.60;99.90
21149;DHT22;10732;51.472;6.466;2024-01-06T07:04:28;4.60;99.90
21149;DHT22;10732;51.472;6.466;2024-01-06T07:06:54;4.60;99.90
21149;DHT22;10732;51.472;6.466;2024-01-06T07:09:19;4.60;99.90
21149;DHT22;10732;51.472;6.466;2024-01-06T07:11:48;4.50;99.90
21149;DHT22;10732;51.472;6.466;2024-01-06T07:14:14;4.60;99.90
21149;DHT22;10732;51.472;6.466;2024-01-06T07:16:39;4.50;99.90
21149;DHT22;10732;51.472;6.466;2024-01-06T07:19:05;4.50;99.90
21149;DHT22;10732;51.472;6.466;2024-01-06T07:21:31;4.40;99.90
21149;DHT22;10732;51.472;6.466;2024-01-06T07:23:56;4.40;99.90
21149;DHT22;10732;51.472;6.466;2024-01-06T07:26:22;4.50;99.90
21149;DHT22;10732;51.472;6.466;2024-01-06T07:28:47;4.40;99.90
21149;DHT22;10732;51.472;6.466;2024-01-06T07:31:14;4.40;99.90
21149;DHT22;10732;51.472;6.466;2024-01-06T07:33:39;4.30;99.90
21149;DHT22;10732;51.472;6.466;2024-01-06T07:36:05;4.30;99.90
21149;DHT22;10732;51.472;6.466;2024-01-06T07:38:31;4.30;99.90
21149;DHT22;10732;51.472;6.466;2024-01-06T07:40:56;4.30;99.90
21149;DHT22;10732;51.472;6.466;2024-01-06T07:43:22;4.30;99.90
21149;DHT22;10732;51.472;6.466;2024-01-06T07:45:48;4.20;99.90
21149;DHT22;10732;51.472;6.466;2024-01-06T07:48:14;4.20;99.90
21149;DHT22;10732;51.472;6.466;2024-01-06T07:50:40;4.20;99.90
21149;DHT22;10732;51.472;6.466;2024-01-06T07:53:06;4.20;99.90
21149;DHT22;10732;51.472;6.466;2024-01-06T07:55:31;4.20;99.90
21149;DHT22;10732;51.472;6.466;2024-01-06T07:57:57;4.20;99.90
21149;DHT22;10732;51.472;6.466;2024-01-06T08:00:22;4.10;99.90
21149;DHT22;10732;51.472;6.466;2024-01-06T08:02:48;4.10;99.90
21149;DHT22;10732;51.472;6.466;2024-01-06T08:05:13;4.10;99.90
21149;DHT22;10732;51.472;6.466;2024-01-06T08:07:39;4.20;99.90
21149;DHT22;10732;51.472;6.466;2024-01-06T08:10:05;4.10;99.90
21149;DHT22;10732;51.472;6.466;2024-01-06T08:12:31;4.10;99.90
21149;DHT22;10732;51.472;6.466;2024-01-06T08:14:57;4.10;99.90
21149;DHT22;10732;51.472;6.466;2024-01-06T08:17:22;4.10;99.90
21149;DHT22;10732;51.472;6.466;2024-01-06T08:19:48;4.00;99.90
21149;DHT22;10732;51.472;6.466;2024-01-06T08:22:14;4.00;99.90
21149;DHT22;10732;51.472;6.466;2024-01-06T08:24:40;4.00;99.90
21149;DHT22;10732;51.472;6.466;2024-01-06T08:27:05;3.80;99.90
21149;DHT22;10732;51.472;6.466;2024-01-06T08:29:31;3.80;99.90
21149;DHT22;10732;51.472;6.466;2024-01-06T08:31:56;3.80;99.90
21149;DHT22;10732;51.472;6.466;2024-01-06T08:34:22;3.80;99.90
21149;DHT22;10732;51.472;6.466;2024-01-06T08:36:48;3.80;99.90
21149;DHT22;10732;51.472;6.466;2024-01-06T08:39:13;3.80;99.90
21149;DHT22;10732;51.472;6.466;2024-01-06T08:41:39;3.80;99.90
21149;DHT22;10732;51.472;6.466;2024-01-06T08:44:05;3.80;99.90
21149;DHT22;10732;51.472;6.466;2024-01-06T08:46:30;3.70;99.90
21149;DHT22;10732;51.472;6.466;2024-01-06T08:48:56;3.80;99.90
21149;DHT22;10732;51.472;6.466;2024-01-06T08:51:22;3.80;99.90
21149;DHT22;10732;51.472;6.466;2024-01-06T08:53:48;3.80;99.90
21149;DHT22;10732;51.472;6.466;2024-01-06T08:56:13;3.80;99.90
21149;DHT22;10732;51.472;6.466;2024-01-06T08:58:41;3.80;99.90
21149;DHT22;10732;51.472;6.466;2024-01-06T09:01:06;3.80;99.90
21149;DHT22;10732;51.472;6.466;2024-01-06T09:03:32;3.80;99.90
21149;DHT22;10732;51.472;6.466;2024-01-06T09:05:58;3.70;99.90
21149;DHT22;10732;51.472;6.466;2024-01-06T09:08:23;3.80;99.90
21149;DHT22;10732;51.472;6.466;2024-01-06T09:10:49;3.80;99.90
21149;DHT22;10732;51.472;6.466;2024-01-06T09:13:17;3.80;99.90
21149;DHT22;10732;51.472;6.466;2024-01-06T09:15:43;3.80;99.90
21149;DHT22;10732;51.472;6.466;2024-01-06T09:18:09;3.70;99.90
21149;DHT22;10732;51.472;6.466;2024-01-06T09:20:34;3.60;99.90
21149;DHT22;10732;51.472;6.466;2024-01-06T09:23:00;3.60;99.90
21149;DHT22;10732;51.472;6.466;2024-01-06T09:25:36;3.60;99.90
21149;DHT22;10732;51.472;6.466;2024-01-06T09:28:02;3.60;99.90
21149;DHT22;10732;51.472;6.466;2024-01-06T09:30:28;3.60;99.90
21149;DHT22;10732;51.472;6.466;2024-01-06T09:32:53;3.50;99.90
21149;DHT22;10732;51.472;6.466;2024-01-06T09:35:19;3.60;99.90
21149;DHT22;10732;51.472;6.466;2024-01-06T09:37:45;3.60;99.90
21149;DHT22;10732;51.472;6.466;2024-01-06T09:40:12;3.60;99.90
21149;DHT22;10732;51.472;6.466;2024-01-06T09:42:41;3.60;99.90
21149;DHT22;10732;51.472;6.466;2024-01-06T09:45:07;3.60;99.90
21149;DHT22;10732;51.472;6.466;2024-01-06T09:47:34;3.60;99.90
21149;DHT22;10732;51.472;6.466;2024-01-06T09:50:03;3.60;99.90
21149;DHT22;10732;51.472;6.466;2024-01-06T09:52:32;3.60;99.90
21149;DHT22;10732;51.472;6.466;2024-01-06T09:54:59;3.50;99.90
21149;DHT22;10732;51.472;6.466;2024-01-06T09:57:26;3.60;99.90
21149;DHT22;10732;51.472;6.466;2024-01-06T09:59:51;3.50;99.90
21149;DHT22;10732;51.472;6.466;2024-01-06T10:02:17;3.50;99.90
21149;DHT22;10732;51.472;6.466;2024-01-06T10:04:44;3.50;99.90
21149;DHT22;10732;51.472;6.466;2024-01-06T10:07:10;3.60;99.90
21149;DHT22;10732;51.472;6.466;2024-01-06T10:09:38;3.50;99.90
21149;DHT22;10732;51.472;6.466;2024-01-06T10:12:04;3.50;99.90
21149;DHT22;10732;51.472;6.466;2024-01-06T10:14:30;3.60;99.90
21149;DHT22;10732;51.472;6.466;2024-01-06T10:16:55;3.60;99.90
21149;DHT22;10732;51.472;6.466;2024-01-06T10:19:23;3.50;99.90
21149;DHT22;10732;51.472;6.466;2024-01-06T10:21:49;3.60;99.90
21149;DHT22;10732;51.472;6.466;2024-01-06T10:24:14;3.40;99.90
21149;DHT22;10732;51.472;6.466;2024-01-06T10:26:42;3.50;99.90
21149;DHT22;10732;51.472;6.466;2024-01-06T10:29:08;3.50;99.90
21149;DHT22;10732;51.472;6.466;2024-01-06T10:31:33;3.50;99.90
21149;DHT22;10732;51.472;6.466;2024-01-06T10:33:59;3.60;99.90
21149;DHT22;10732;51.472;6.466;2024-01-06T10:36:25;3.50;99.90
21149;DHT22;10732;51.472;6.466;2024-01-06T10:38:52;3.60;99.90
21149;DHT22;10732;51.472;6.466;2024-01-06T10:41:19;3.50;99.90
21149;DHT22;10732;51.472;6.466;2024-01-06T10:43:46;3.50;99.90
21149;DHT22;10732;51.472;6.466;2024-01-06T10:46:13;3.50;99.90
21149;DHT22;10732;51.472;6.466;2024-01-06T10:48:41;3.40;99.90
21149;DHT22;10732;51.472;6.466;2024-01-06T10:51:12;3.50;99.90
21149;DHT22;10732;51.472;6.466;2024-01-06T10:53:40;3.60;99.90
21149;DHT22;10732;51.472;6.466;2024-01-06T10:56:06;3.50;99.90
21149;DHT22;10732;51.472;6.466;2024-01-06T10:58:46;3.50;99.90
21149;DHT22;10732;51.472;6.466;2024-01-06T11:01:13;3.50;99.90
21149;DHT22;10732;51.472;6.466;2024-01-06T11:03:39;3.40;99.90
21149;DHT22;10732;51.472;6.466;2024-01-06T11:06:06;3.50;99.90
21149;DHT22;10732;51.472;6.466;2024-01-06T11:11:16;3.40;99.90
21149;DHT22;10732;51.472;6.466;2024-01-06T11:13:42;3.50;99.90
21149;DHT22;10732;51.472;6.466;2024-01-06T11:16:10;3.60;99.90
21149;DHT22;10732;51.472;6.466;2024-01-06T11:18:38;3.60;99.90
21149;DHT22;10732;51.472;6.466;2024-01-06T11:21:22;3.80;99.90
21149;DHT22;10732;51.472;6.466;2024-01-06T11:24:16;3.70;99.90
21149;DHT22;10732;51.472;6.466;2024-01-06T11:26:50;3.70;99.90
21149;DHT22;10732;51.472;6.466;2024-01-06T11:29:17;3.70;99.90
21149;DHT22;10732;51.472;6.466;2024-01-06T11:31:43;3.70;99.90
21149;DHT22;10732;51.472;6.466;2024-01-06T11:34:16;3.70;99.90
21149;DHT22;10732;51.472;6.466;2024-01-06T11:36:45;3.60;99.90
21149;DHT22;10732;51.472;6.466;2024-01-06T11:39:36;3.50;99.90
21149;DHT22;10732;51.472;6.466;2024-01-06T11:42:04;3.50;99.90
21149;DHT22;10732;51.472;6.466;2024-01-06T11:44:34;3.40;99.90
21149;DHT22;10732;51.472;6.466;2024-01-06T11:46:59;3.50;99.90
21149;DHT22;10732;51.472;6.466;2024-01-06T11:49:28;3.60;99.90
21149;DHT22;10732;51.472;6.466;2024-01-06T11:51:54;3.60;99.90
21149;DHT22;10732;51.472;6.466;2024-01-06T11:54:21;3.50;99.90
21149;DHT22;10732;51.472;6.466;2024-01-06T11:56:47;3.50;99.90
21149;DHT22;10732;51.472;6.466;2024-01-06T11:59:13;3.50;99.90
21149;DHT22;10732;51.472;6.466;2024-01-06T12:01:39;3.70;99.90
21149;DHT22;10732;51.472;6.466;2024-01-06T12:04:05;3.70;99.90
21149;DHT22;10732;51.472;6.466;2024-01-06T12:06:34;3.70;99.90
21149;DHT22;10732;51.472;6.466;2024-01-06T12:09:07;3.60;99.90
21149;DHT22;10732;51.472;6.466;2024-01-06T12:11:33;3.70;99.90
21149;DHT22;10732;51.472;6.466;2024-01-06T12:13:58;3.70;99.90
21149;DHT22;10732;51.472;6.466;2024-01-06T12:16:24;3.70;99.90
21149;DHT22;10732;51.472;6.466;2024-01-06T12:18:53;3.60;99.90
21149;DHT22;10732;51.472;6.466;2024-01-06T12:21:24;3.60;99.90
21149;DHT22;10732;51.472;6.466;2024-01-06T12:23:50;3.50;99.90
21149;DHT22;10732;51.472;6.466;2024-01-06T12:26:19;3.50;99.90
21149;DHT22;10732;51.472;6.466;2024-01-06T12:28:46;3.50;99.90
21149;DHT22;10732;51.472;6.466;2024-01-06T12:31:11;3.40;99.90
21149;DHT22;10732;51.472;6.466;2024-01-06T12:33:40;3.30;99.90
21149;DHT22;10732;51.472;6.466;2024-01-06T12:36:09;3.40;99.90
21149;DHT22;10732;51.472;6.466;2024-01-06T12:38:37;3.40;99.90
21149;DHT22;10732;51.472;6.466;2024-01-06T12:41:04;3.40;99.90
21149;DHT22;10732;51.472;6.466;2024-01-06T12:43:29;3.40;99.90
21149;DHT22;10732;51.472;6.466;2024-01-06T12:45:55;3.30;99.90
21149;DHT22;10732;51.472;6.466;2024-01-06T12:48:22;3.20;99.90
21149;DHT22;10732;51.472;6.466;2024-01-06T12:50:48;3.20;99.90
21149;DHT22;10732;51.472;6.466;2024-01-06T12:53:13;3.20;99.90
21149;DHT22;10732;51.472;6.466;2024-01-06T12:55:41;3.00;99.90
21149;DHT22;10732;51.472;6.466;2024-01-06T12:58:06;3.10;99.90
21149;DHT22;10732;51.472;6.466;2024-01-06T13:00:33;3.10;99.90
21149;DHT22;10732;51.472;6.466;2024-01-06T13:02:59;3.10;99.90
21149;DHT22;10732;51.472;6.466;2024-01-06T13:05:24;3.10;99.90
21149;DHT22;10732;51.472;6.466;2024-01-06T13:07:50;3.00;99.90
21149;DHT22;10732;51.472;6.466;2024-01-06T13:10:16;3.10;99.90
21149;DHT22;10732;51.472;6.466;2024-01-06T13:12:42;3.10;99.90
21149;DHT22;10732;51.472;6.466;2024-01-06T13:15:08;3.00;99.90
21149;DHT22;10732;51.472;6.466;2024-01-06T13:17:37;3.00;99.90
21149;DHT22;10732;51.472;6.466;2024-01-06T13:20:04;3.10;99.90
21149;DHT22;10732;51.472;6.466;2024-01-06T13:22:30;3.00;99.90
21149;DHT22;10732;51.472;6.466;2024-01-06T13:24:56;3.00;99.90
21149;DHT22;10732;51.472;6.466;2024-01-06T13:27:21;2.90;99.90
21149;DHT22;10732;51.472;6.466;2024-01-06T13:29:47;3.00;99.90
21149;DHT22;10732;51.472;6.466;2024-01-06T13:32:13;3.00;99.90
21149;DHT22;10732;51.472;6.466;2024-01-06T13:34:40;3.00;99.90
21149;DHT22;10732;51.472;6.466;2024-01-06T13:37:07;3.00;99.90
21149;DHT22;10732;51.472;6.466;2024-01-06T13:39:32;3.10;99.90
21149;DHT22;10732;51.472;6.466;2024-01-06T13:41:58;3.10;99.90
21149;DHT22;10732;51.472;6.466;2024-01-06T13:44:23;3.00;99.90
21149;DHT22;10732;51.472;6.466;2024-01-06T13:46:49;3.00;99.90
21149;DHT22;10732;51.472;6.466;2024-01-06T13:49:17;2.90;99.90
21149;DHT22;10732;51.472;6.466;2024-01-06T13:51:43;2.90;99.90
21149;DHT22;10732;51.472;6.466;2024-01-06T13:54:09;2.90;99.90
21149;DHT22;10732;51.472;6.466;2024-01-06T13:56:35;2.80;99.90
21149;DHT22;10732;51.472;6.466;2024-01-06T13:59:02;2.80;99.90
21149;DHT22;10732;51.472;6.466;2024-01-06T14:01:27;2.80;99.90
21149;DHT22;10732;51.472;6.466;2024-01-06T14:03:53;2.70;99.90
21149;DHT22;10732;51.472;6.466;2024-01-06T14:06:26;2.80;99.90
21149;DHT22;10732;51.472;6.466;2024-01-06T14:08:59;2.70;99.90
21149;DHT22;10732;51.472;6.466;2024-01-06T14:11:28;2.80;99.90
21149;DHT22;10732;51.472;6.466;2024-01-06T14:13:57;2.80;99.90
21149;DHT22;10732;51.472;6.466;2024-01-06T14:16:23;2.70;99.90
21149;DHT22;10732;51.472;6.466;2024-01-06T14:18:51;2.60;99.90
21149;DHT22;10732;51.472;6.466;2024-01-06T14:21:16;2.60;99.90
21149;DHT22;10732;51.472;6.466;2024-01-06T14:23:48;2.70;99.90
21149;DHT22;10732;51.472;6.466;2024-01-06T14:26:15;2.70;99.90
21149;DHT22;10732;51.472;6.466;2024-01-06T14:28:42;2.60;99.90
21149;DHT22;10732;51.472;6.466;2024-01-06T14:31:07;2.70;99.90
21149;DHT22;10732;51.472;6.466;2024-01-06T14:33:35;2.80;99.90
21149;DHT22;10732;51.472;6.466;2024-01-06T14:36:01;2.70;99.90
21149;DHT22;10732;51.472;6.466;2024-01-06T14:38:27;2.70;99.90
21149;DHT22;10732;51.472;6.466;2024-01-06T14:40:52;2.80;99.90
21149;DHT22;10732;51.472;6.466;2024-01-06T14:43:18;2.80;99.90
21149;DHT22;10732;51.472;6.466;2024-01-06T14:45:44;2.70;99.90
21149;DHT22;10732;51.472;6.466;2024-01-06T14:48:09;2.70;99.90
21149;DHT22;10732;51.472;6.466;2024-01-06T14:50:35;2.70;99.90
21149;DHT22;10732;51.472;6.466;2024-01-06T14:53:01;2.70;99.90
21149;DHT22;10732;51.472;6.466;2024-01-06T14:55:27;2.70;99.90
21149;DHT22;10732;51.472;6.466;2024-01-06T14:57:52;2.70;99.90
21149;DHT22;10732;51.472;6.466;2024-01-06T15:00:18;2.70;99.90
21149;DHT22;10732;51.472;6.466;2024-01-06T15:02:44;2.60;99.90
21149;DHT22;10732;51.472;6.466;2024-01-06T15:05:11;2.60;99.90
21149;DHT22;10732;51.472;6.466;2024-01-06T15:07:37;2.70;99.90
21149;DHT22;10732;51.472;6.466;2024-01-06T15:10:03;2.60;99.90
21149;DHT22;10732;51.472;6.466;2024-01-06T15:12:29;2.70;99.90
21149;DHT22;10732;51.472;6.466;2024-01-06T15:14:55;2.60;99.90
21149;DHT22;10732;51.472;6.466;2024-01-06T15:17:20;2.70;99.90
21149;DHT22;10732;51.472;6.466;2024-01-06T15:19:46;2.70;99.90
21149;DHT22;10732;51.472;6.466;2024-01-06T15:22:12;2.70;99.90
21149;DHT22;10732;51.472;6.466;2024-01-06T15:24:39;2.60;99.90
21149;DHT22;10732;51.472;6.466;2024-01-06T15:27:05;2.60;99.90
21149;DHT22;10732;51.472;6.466;2024-01-06T15:29:31;2.60;99.90
21149;DHT22;10732;51.472;6.466;2024-01-06T15:31:57;2.60;99.90
21149;DHT22;10732;51.472;6.466;2024-01-06T15:34:23;2.60;99.90
21149;DHT22;10732;51.472;6.466;2024-01-06T15:36:49;2.60;99.90
21149;DHT22;10732;51.472;6.466;2024-01-06T15:39:15;2.60;99.90
21149;DHT22;10732;51.472;6.466;2024-01-06T15:41:41;2.50;99.90